sensor_id;sensor_type;location;lat;lon;timestamp;temperature;humidity
33149;DHT22;19506;51.040;3.856;2022-10-31T05:00:41;18.60;99.90
33149;DHT22;19506;51.040;3.856;2022-10-31T05:05:33;18.80;99.90
33149;DHT22;19506;51.040;3.856;2022-10-31T05:07:59;19.00;99.90
33149;DHT22;19506;51.040;3.856;2022-10-31T05:10:27;18.90;99.90
33149;DHT22;19506;51.040;3.856;2022-10-31T05:12:59;19.00;99.90
33149;DHT22;19506;51.040;3.856;2022-10-31T05:15:26;19.00;99.90
33149;DHT22;19506;51.040;3.856;2022-10-31T05:17:53;19.00;99.90
33149;DHT22;19506;51.040;3.856;2022-10-31T05:20:20;19.10;99.90
33149;DHT22;19506;51.040;3.856;2022-10-31T05:22:48;19.10;99.90
33149;DHT22;19506;51.040;3.856;2022-10-31T05:25:14;19.10;99.90
33149;DHT22;19506;51.040;3.856;2022-10-31T05:27:41;19.20;99.90
33149;DHT22;19506;51.040;3.856;2022-10-31T05:30:08;19.20;99.90
33149;DHT22;19506;51.040;3.856;2022-10-31T05:32:38;19.30;99.90
33149;DHT22;19506;51.040;3.856;2022-10-31T05:35:08;19.20;99.90
33149;DHT22;19506;51.040;3.856;2022-10-31T05:47:23;19.30;99.90
33149;DHT22;19506;51.040;3.856;2022-10-31T05:49:49;19.30;99.90
33149;DHT22;19506;51.040;3.856;2022-10-31T05:52:14;19.30;99.90
33149;DHT22;19506;51.040;3.856;2022-10-31T05:54:40;19.40;99.90
33149;DHT22;19506;51.040;3.856;2022-10-31T05:57:06;19.40;99.90
33149;DHT22;19506;51.040;3.856;2022-10-31T05:59:32;19.40;99.90
33149;DHT22;19506;51.040;3.856;2022-10-31T06:01:58;19.40;99.90
33149;DHT22;19506;51.040;3.856;2022-10-31T06:04:23;19.40;99.90
33149;DHT22;19506;51.040;3.856;2022-10-31T06:06:49;19.40;99.90
33149;DHT22;19506;51.040;3.856;2022-10-31T06:21:25;19.40;99.90
33149;DHT22;19506;51.040;3.856;2022-10-31T06:23:50;19.40;99.90
33149;DHT22;19506;51.040;3.856;2022-10-31T06:26:16;19.40;99.90
33149;DHT22;19506;51.040;3.856;2022-10-31T06:28:42;19.30;99.90
33149;DHT22;19506;51.040;3.856;2022-10-31T06:31:08;19.40;99.90
33149;DHT22;19506;51.040;3.856;2022-10-31T06:33:34;19.40;99.90
33149;DHT22;19506;51.040;3.856;2022-10-31T06:36:00;19.40;99.90
33149;DHT22;19506;51.040;3.856;2022-10-31T06:38:26;19.50;99.90
33149;DHT22;19506;51.040;3.856;2022-10-31T06:40:53;19.50;99.90
33149;DHT22;19506;51.040;3.856;2022-10-31T06:43:19;19.50;99.90
33149;DHT22;19506;51.040;3.856;2022-10-31T06:45:44;19.50;99.90
33149;DHT22;19506;51.040;3.856;2022-10-31T06:48:10;19.50;99.90
33149;DHT22;19506;51.040;3.856;2022-10-31T06:50:36;19.50;99.90
33149;DHT22;19506;51.040;3.856;2022-10-31T06:53:01;19.60;99.90
33149;DHT22;19506;51.040;3.856;2022-10-31T06:55:27;19.60;99.90
33149;DHT22;19506;51.040;3.856;2022-10-31T06:57:58;19.60;99.90
33149;DHT22;19506;51.040;3.856;2022-10-31T07:00:25;19.60;99.90
33149;DHT22;19506;51.040;3.856;2022-10-31T07:03:02;19.60;99.90
33149;DHT22;19506;51.040;3.856;2022-10-31T07:05:29;19.50;99.90
33149;DHT22;19506;51.040;3.856;2022-10-31T07:07:56;19.50;99.90
33149;DHT22;19506;51.040;3.856;2022-10-31T07:10:24;19.50;99.90
33149;DHT22;19506;51.040;3.856;2022-10-31T07:12:58;19.40;99.90
33149;DHT22;19506;51.040;3.856;2022-10-31T07:15:25;19.40;99.90
33149;DHT22;19506;51.040;3.856;2022-10-31T07:17:51;19.40;99.90
33149;DHT22;19506;51.040;3.856;2022-10-31T07:20:17;19.40;99.90
33149;DHT22;19506;51.040;3.856;2022-10-31T07:22:43;19.30;99.90
33149;DHT22;19506;51.040;3.856;2022-10-31T07:25:09;19.20;99.90
33149;DHT22;19506;51.040;3.856;2022-10-31T07:27:36;18.80;99.90
33149;DHT22;19506;51.040;3.856;2022-10-31T07:30:02;18.50;99.90
33149;DHT22;19506;51.040;3.856;2022-10-31T07:32:37;18.30;99.90
33149;DHT22;19506;51.040;3.856;2022-10-31T07:35:03;18.00;99.90
33149;DHT22;19506;51.040;3.856;2022-10-31T07:37:29;17.80;99.90
33149;DHT22;19506;51.040;3.856;2022-10-31T07:39:54;17.90;99.90
33149;DHT22;19506;51.040;3.856;2022-10-31T07:42:20;17.80;99.90
33149;DHT22;19506;51.040;3.856;2022-10-31T07:44:45;17.70;99.90
33149;DHT22;19506;51.040;3.856;2022-10-31T07:47:11;17.50;99.90
33149;DHT22;19506;51.040;3.856;2022-10-31T07:49:37;17.50;99.90
33149;DHT22;19506;51.040;3.856;2022-10-31T07:52:02;17.50;99.90
33149;DHT22;19506;51.040;3.856;2022-10-31T07:54:28;17.40;99.90
33149;DHT22;19506;51.040;3.856;2022-10-31T07:56:53;17.40;99.90
33149;DHT22;19506;51.040;3.856;2022-10-31T07:59:19;17.30;99.90
33149;DHT22;19506;51.040;3.856;2022-10-31T08:01:45;17.20;99.90
33149;DHT22;19506;51.040;3.856;2022-10-31T08:04:10;16.90;99.90
33149;DHT22;19506;51.040;3.856;2022-10-31T08:06:36;17.00;99.90
33149;DHT22;19506;51.040;3.856;2022-10-31T08:09:02;17.00;99.90
33149;DHT22;19506;51.040;3.856;2022-10-31T08:11:27;17.10;99.90
33149;DHT22;19506;51.040;3.856;2022-10-31T08:13:53;17.10;99.90
33149;DHT22;19506;51.040;3.856;2022-10-31T08:16:19;17.10;99.90
33149;DHT22;19506;51.040;3.856;2022-10-31T08:18:44;17.00;99.90
33149;DHT22;19506;51.040;3.856;2022-10-31T08:21:10;16.90;99.90
33149;DHT22;19506;51.040;3.856;2022-10-31T08:23:35;16.90;99.90
33149;DHT22;19506;51.040;3.856;2022-10-31T08:26:01;16.80;99.90
33149;DHT22;19506;51.040;3.856;2022-10-31T08:28:27;16.80;99.90
33149;DHT22;19506;51.040;3.856;2022-10-31T08:30:52;16.80;99.90
33149;DHT22;19506;51.040;3.856;2022-10-31T08:33:18;16.80;99.90
33149;DHT22;19506;51.040;3.856;2022-10-31T08:35:44;16.80;99.90
33149;DHT22;19506;51.040;3.856;2022-10-31T08:38:11;16.80;99.90
33149;DHT22;19506;51.040;3.856;2022-10-31T08:40:37;16.80;99.90
33149;DHT22;19506;51.040;3.856;2022-10-31T08:43:15;16.80;99.90
33149;DHT22;19506;51.040;3.856;2022-10-31T08:45:41;16.80;99.90
33149;DHT22;19506;51.040;3.856;2022-10-31T08:48:13;16.80;99.90
33149;DHT22;19506;51.040;3.856;2022-10-31T08:50:39;16.90;99.90
33149;DHT22;19506;51.040;3.856;2022-10-31T08:53:14;16.90;99.90
33149;DHT22;19506;51.040;3.856;2022-10-31T08:55:41;16.90;99.90
33149;DHT22;19506;51.040;3.856;2022-10-31T08:58:10;17.00;99.90
33149;DHT22;19506;51.040;3.856;2022-10-31T09:00:37;17.00;99.90
33149;DHT22;19506;51.040;3.856;2022-10-31T09:03:09;17.00;99.90
33149;DHT22;19506;51.040;3.856;2022-10-31T09:05:35;17.00;99.90
33149;DHT22;19506;51.040;3.856;2022-10-31T09:08:02;17.00;99.90
33149;DHT22;19506;51.040;3.856;2022-10-31T09:10:29;17.00;99.90
33149;DHT22;19506;51.040;3.856;2022-10-31T09:12:56;17.00;99.90
33149;DHT22;19506;51.040;3.856;2022-10-31T09:15:23;17.00;99.90
33149;DHT22;19506;51.040;3.856;2022-10-31T09:17:49;16.90;99.90
33149;DHT22;19506;51.040;3.856;2022-10-31T09:20:14;16.90;99.90
33149;DHT22;19506;51.040;3.856;2022-10-31T09:22:41;16.90;99.90
33149;DHT22;19506;51.040;3.856;2022-10-31T09:25:07;16.90;99.90
33149;DHT22;19506;51.040;3.856;2022-10-31T09:27:32;17.00;99.90
33149;DHT22;19506;51.040;3.856;2022-10-31T09:29:58;17.00;99.90
33149;DHT22;19506;51.040;3.856;2022-10-31T09:32:24;17.00;99.90
33149;DHT22;19506;51.040;3.856;2022-10-31T09:34:49;17.10;99.90
33149;DHT22;19506;51.040;3.856;2022-10-31T09:37:15;17.10;99.90
33149;DHT22;19506;51.040;3.856;2022-10-31T09:39:41;17.10;99.90
33149;DHT22;19506;51.040;3.856;2022-10-31T09:42:27;17.10;99.90
33149;DHT22;19506;51.040;3.856;2022-10-31T09:50:39;17.20;99.90
33149;DHT22;19506;51.040;3.856;2022-10-31T09:53:36;17.20;99.90
33149;DHT22;19506;51.040;3.856;2022-10-31T09:56:10;17.20;99.90
33149;DHT22;19506;51.040;3.856;2022-10-31T09:58:43;17.20;99.90
33149;DHT22;19506;51.040;3.856;2022-10-31T10:01:34;17.30;99.90
33149;DHT22;19506;51.040;3.856;2022-10-31T10:04:34;17.30;99.90
33149;DHT22;19506;51.040;3.856;2022-10-31T10:07:54;17.30;99.90
33149;DHT22;19506;51.040;3.856;2022-10-31T10:09:53;17.30;99.90
33149;DHT22;19506;51.040;3.856;2022-10-31T10:20:42;17.50;99.90
33149;DHT22;19506;51.040;3.856;2022-10-31T10:26:18;17.30;99.90
33149;DHT22;19506;51.040;3.856;2022-10-31T10:28:48;17.30;99.90
33149;DHT22;19506;51.040;3.856;2022-10-31T10:31:16;17.40;99.90
33149;DHT22;19506;51.040;3.856;2022-10-31T10:34:01;17.40;99.90
33149;DHT22;19506;51.040;3.856;2022-10-31T10:39:25;17.60;99.90
33149;DHT22;19506;51.040;3.856;2022-10-31T10:41:52;17.70;99.90
33149;DHT22;19506;51.040;3.856;2022-10-31T10:44:39;17.70;99.90
33149;DHT22;19506;51.040;3.856;2022-10-31T10:47:36;17.80;99.90
33149;DHT22;19506;51.040;3.856;2022-10-31T10:53:18;18.00;99.90
33149;DHT22;19506;51.040;3.856;2022-10-31T10:56:23;18.10;99.90
33149;DHT22;19506;51.040;3.856;2022-10-31T10:58:54;18.10;99.90
33149;DHT22;19506;51.040;3.856;2022-10-31T11:01:22;18.20;99.90
33149;DHT22;19506;51.040;3.856;2022-10-31T11:03:48;18.10;99.90
33149;DHT22;19506;51.040;3.856;2022-10-31T11:06:23;18.30;99.90
33149;DHT22;19506;51.040;3.856;2022-10-31T11:08:52;18.30;99.90
33149;DHT22;19506;51.040;3.856;2022-10-31T11:11:27;18.50;99.90
33149;DHT22;19506;51.040;3.856;2022-10-31T11:14:13;18.50;99.90
33149;DHT22;19506;51.040;3.856;2022-10-31T11:16:43;18.60;99.90
33149;DHT22;19506;51.040;3.856;2022-10-31T11:19:17;18.70;99.90
33149;DHT22;19506;51.040;3.856;2022-10-31T11:21:44;18.70;99.90
33149;DHT22;19506;51.040;3.856;2022-10-31T11:26:37;18.50;99.90
33149;DHT22;19506;51.040;3.856;2022-10-31T11:31:38;18.40;99.90
33149;DHT22;19506;51.040;3.856;2022-10-31T11:34:11;18.40;99.90
33149;DHT22;19506;51.040;3.856;2022-10-31T11:36:39;18.50;99.90
33149;DHT22;19506;51.040;3.856;2022-10-31T11:39:19;18.70;99.90
33149;DHT22;19506;51.040;3.856;2022-10-31T11:41:46;18.70;99.90
33149;DHT22;19506;51.040;3.856;2022-10-31T11:44:17;18.60;99.90
33149;DHT22;19506;51.040;3.856;2022-10-31T11:46:47;18.50;99.90
33149;DHT22;19506;51.040;3.856;2022-10-31T11:49:27;18.40;99.90
33149;DHT22;19506;51.040;3.856;2022-10-31T11:51:55;18.30;99.90
33149;DHT22;19506;51.040;3.856;2022-10-31T11:54:32;18.20;99.90
33149;DHT22;19506;51.040;3.856;2022-10-31T11:56:58;18.00;99.90
33149;DHT22;19506;51.040;3.856;2022-10-31T11:59:30;18.00;99.90
33149;DHT22;19506;51.040;3.856;2022-10-31T12:02:00;18.20;99.90
33149;DHT22;19506;51.040;3.856;2022-10-31T12:04:41;18.20;99.90
33149;DHT22;19506;51.040;3.856;2022-10-31T12:07:08;18.20;99.90
33149;DHT22;19506;51.040;3.856;2022-10-31T12:09:36;18.20;99.90
33149;DHT22;19506;51.040;3.856;2022-10-31T12:12:47;18.20;99.90
33149;DHT22;19506;51.040;3.856;2022-10-31T12:15:31;18.20;99.90
33149;DHT22;19506;51.040;3.856;2022-10-31T12:48:10;18.30;99.90
33149;DHT22;19506;51.040;3.856;2022-10-31T12:54:01;18.10;99.90
33149;DHT22;19506;51.040;3.856;2022-10-31T12:59:11;18.20;99.90
33149;DHT22;19506;51.040;3.856;2022-10-31T13:01:51;18.20;99.90
33149;DHT22;19506;51.040;3.856;2022-10-31T13:06:59;18.50;99.90
33149;DHT22;19506;51.040;3.856;2022-10-31T13:09:36;19.00;99.90
33149;DHT22;19506;51.040;3.856;2022-10-31T13:12:15;19.40;99.90
33149;DHT22;19506;51.040;3.856;2022-10-31T13:14:48;19.50;99.90
33149;DHT22;19506;51.040;3.856;2022-10-31T13:17:36;19.60;99.90
33149;DHT22;19506;51.040;3.856;2022-10-31T13:20:30;19.50;99.90
33149;DHT22;19506;51.040;3.856;2022-10-31T13:23:19;19.70;99.90
33149;DHT22;19506;51.040;3.856;2022-10-31T13:25:51;19.50;99.90
33149;DHT22;19506;51.040;3.856;2022-10-31T13:28:43;19.30;99.90
33149;DHT22;19506;51.040;3.856;2022-10-31T13:31:10;19.40;99.90
33149;DHT22;19506;51.040;3.856;2022-10-31T13:33:40;19.30;99.90
33149;DHT22;19506;51.040;3.856;2022-10-31T13:44:17;19.70;99.90
33149;DHT22;19506;51.040;3.856;2022-10-31T13:46:44;19.90;99.90
33149;DHT22;19506;51.040;3.856;2022-10-31T13:54:36;20.00;99.90
33149;DHT22;19506;51.040;3.856;2022-10-31T13:57:06;19.90;99.90
33149;DHT22;19506;51.040;3.856;2022-10-31T13:59:34;19.90;99.90
33149;DHT22;19506;51.040;3.856;2022-10-31T14:02:16;19.90;99.90
33149;DHT22;19506;51.040;3.856;2022-10-31T14:04:48;19.90;99.90
33149;DHT22;19506;51.040;3.856;2022-10-31T14:07:16;19.90;99.90
33149;DHT22;19506;51.040;3.856;2022-10-31T14:09:59;20.00;99.90
33149;DHT22;19506;51.040;3.856;2022-10-31T14:15:16;20.00;99.90
33149;DHT22;19506;51.040;3.856;2022-10-31T14:17:52;19.90;99.90
33149;DHT22;19506;51.040;3.856;2022-10-31T14:22:45;19.90;99.90
33149;DHT22;19506;51.040;3.856;2022-10-31T14:25:32;19.90;99.90
33149;DHT22;19506;51.040;3.856;2022-10-31T14:28:03;19.90;99.90
33149;DHT22;19506;51.040;3.856;2022-10-31T14:30:54;20.00;99.90
33149;DHT22;19506;51.040;3.856;2022-10-31T14:33:22;20.00;99.90
33149;DHT22;19506;51.040;3.856;2022-10-31T14:36:02;20.00;99.90
33149;DHT22;19506;51.040;3.856;2022-10-31T14:38:55;20.00;99.90
33149;DHT22;19506;51.040;3.856;2022-10-31T14:41:51;20.00;99.90
33149;DHT22;19506;51.040;3.856;2022-10-31T14:47:22;20.00;99.90
33149;DHT22;19506;51.040;3.856;2022-10-31T14:52:28;20.00;99.90
33149;DHT22;19506;51.040;3.856;2022-10-31T14:54:56;20.00;99.90
33149;DHT22;19506;51.040;3.856;2022-10-31T14:57:28;19.90;99.90
33149;DHT22;19506;51.040;3.856;2022-10-31T15:00:00;20.00;99.90
33149;DHT22;19506;51.040;3.856;2022-10-31T15:02:28;19.90;99.90
33149;DHT22;19506;51.040;3.856;2022-10-31T15:04:55;19.90;99.90
33149;DHT22;19506;51.040;3.856;2022-10-31T15:07:23;19.90;99.90
33149;DHT22;19506;51.040;3.856;2022-10-31T15:10:18;19.90;99.90
33149;DHT22;19506;51.040;3.856;2022-10-31T15:12:44;19.90;99.90
33149;DHT22;19506;51.040;3.856;2022-10-31T15:15:21;19.90;99.90
33149;DHT22;19506;51.040;3.856;2022-10-31T15:17:56;19.90;99.90
33149;DHT22;19506;51.040;3.856;2022-10-31T15:20:26;19.90;99.90
33149;DHT22;19506;51.040;3.856;2022-10-31T15:22:53;19.80;99.90
33149;DHT22;19506;51.040;3.856;2022-10-31T15:25:22;19.80;99.90
33149;DHT22;19506;51.040;3.856;2022-10-31T15:27:49;19.80;99.90
33149;DHT22;19506;51.040;3.856;2022-10-31T15:30:21;19.80;99.90
33149;DHT22;19506;51.040;3.856;2022-10-31T15:32:47;19.80;99.90
33149;DHT22;19506;51.040;3.856;2022-10-31T15:35:40;19.80;99.90
33149;DHT22;19506;51.040;3.856;2022-10-31T15:38:07;19.80;99.90
33149;DHT22;19506;51.040;3.856;2022-10-31T15:40:33;19.70;99.90
33149;DHT22;19506;51.040;3.856;2022-10-31T15:43:04;19.70;99.90
33149;DHT22;19506;51.040;3.856;2022-10-31T15:45:30;19.70;99.90
33149;DHT22;19506;51.040;3.856;2022-10-31T15:48:00;19.70;99.90
33149;DHT22;19506;51.040;3.856;2022-10-31T15:52:54;19.60;99.90
33149;DHT22;19506;51.040;3.856;2022-10-31T15:55:29;19.60;99.90
33149;DHT22;19506;51.040;3.856;2022-10-31T15:58:00;19.60;99.90
33149;DHT22;19506;51.040;3.856;2022-10-31T16:00:29;19.60;99.90
33149;DHT22;19506;51.040;3.856;2022-10-31T16:05:48;19.50;99.90
33149;DHT22;19506;51.040;3.856;2022-10-31T16:11:02;19.50;99.90
33149;DHT22;19506;51.040;3.856;2022-10-31T16:14:14;19.50;99.90
33149;DHT22;19506;51.040;3.856;2022-10-31T16:16:46;19.50;99.90
33149;DHT22;19506;51.040;3.856;2022-10-31T16:21:48;19.50;99.90
33149;DHT22;19506;51.040;3.856;2022-10-31T16:24:27;19.40;99.90
33149;DHT22;19506;51.040;3.856;2022-10-31T16:27:04;19.40;99.90
33149;DHT22;19506;51.040;3.856;2022-10-31T16:29:44;19.40;99.90
33149;DHT22;19506;51.040;3.856;2022-10-31T16:32:30;19.40;99.90
33149;DHT22;19506;51.040;3.856;2022-10-31T16:37:37;19.40;99.90
33149;DHT22;19506;51.040;3.856;2022-10-31T16:40:03;19.40;99.90
33149;DHT22;19506;51.040;3.856;2022-10-31T16:42:29;19.30;99.90
33149;DHT22;19506;51.040;3.856;2022-10-31T16:44:54;19.40;99.90
33149;DHT22;19506;51.040;3.856;2022-10-31T16:47:20;19.30;99.90
33149;DHT22;19506;51.040;3.856;2022-10-31T16:49:49;19.30;99.90
33149;DHT22;19506;51.040;3.856;2022-10-31T16:52:16;19.30;99.90
33149;DHT22;19506;51.040;3.856;2022-10-31T16:54:42;19.30;99.90
33149;DHT22;19506;51.040;3.856;2022-10-31T16:57:13;19.30;99.90
33149;DHT22;19506;51.040;3.856;2022-10-31T16:59:39;19.30;99.90
33149;DHT22;19506;51.040;3.856;2022-10-31T17:02:13;19.30;99.90
33149;DHT22;19506;51.040;3.856;2022-10-31T17:04:39;19.30;99.90
33149;DHT22;19506;51.040;3.856;2022-10-31T17:07:05;19.30;99.90
33149;DHT22;19506;51.040;3.856;2022-10-31T17:11:57;19.40;99.90
33149;DHT22;19506;51.040;3.856;2022-10-31T17:14:22;19.40;99.90
33149;DHT22;19506;51.040;3.856;2022-10-31T17:16:48;19.40;99.90
33149;DHT22;19506;51.040;3.856;2022-10-31T17:21:40;19.50;99.90
33149;DHT22;19506;51.040;3.856;2022-10-31T17:24:06;19.50;99.90
33149;DHT22;19506;51.040;3.856;2022-10-31T17:26:33;19.50;99.90
33149;DHT22;19506;51.040;3.856;2022-10-31T17:31:29;19.50;99.90
33149;DHT22;19506;51.040;3.856;2022-10-31T17:36:22;19.60;99.90
33149;DHT22;19506;51.040;3.856;2022-10-31T17:38:47;19.80;99.90
33149;DHT22;19506;51.040;3.856;2022-10-31T17:43:39;19.60;99.90
33149;DHT22;19506;51.040;3.856;2022-10-31T17:46:05;19.70;99.90
33149;DHT22;19506;51.040;3.856;2022-10-31T17:48:35;19.80;99.90
33149;DHT22;19506;51.040;3.856;2022-10-31T17:53:29;19.70;99.90
33149;DHT22;19506;51.040;3.856;2022-10-31T17:56:03;19.70;99.90
33149;DHT22;19506;51.040;3.856;2022-10-31T17:58:29;19.70;99.90
33149;DHT22;19506;51.040;3.856;2022-10-31T18:00:56;19.70;99.90
33149;DHT22;19506;51.040;3.856;2022-10-31T18:03:22;19.70;99.90
33149;DHT22;19506;51.040;3.856;2022-10-31T18:06:06;19.70;99.90
33149;DHT22;19506;51.040;3.856;2022-10-31T18:08:34;19.70;99.90
33149;DHT22;19506;51.040;3.856;2022-10-31T18:11:07;19.70;99.90
33149;DHT22;19506;51.040;3.856;2022-10-31T18:13:34;19.80;99.90
33149;DHT22;19506;51.040;3.856;2022-10-31T18:16:00;19.70;99.90
33149;DHT22;19506;51.040;3.856;2022-10-31T18:18:26;19.70;99.90
33149;DHT22;19506;51.040;3.856;2022-10-31T18:20:56;19.70;99.90
33149;DHT22;19506;51.040;3.856;2022-10-31T18:23:22;19.70;99.90
33149;DHT22;19506;51.040;3.856;2022-10-31T18:25:47;19.70;99.90
33149;DHT22;19506;51.040;3.856;2022-10-31T18:33:06;19.80;99.90
33149;DHT22;19506;51.040;3.856;2022-10-31T18:35:37;19.80;99.90
33149;DHT22;19506;51.040;3.856;2022-10-31T18:38:03;19.80;99.90
33149;DHT22;19506;51.040;3.856;2022-10-31T18:40:31;19.80;99.90
33149;DHT22;19506;51.040;3.856;2022-10-31T18:42:57;19.80;99.90
33149;DHT22;19506;51.040;3.856;2022-10-31T18:45:22;19.70;99.90
33149;DHT22;19506;51.040;3.856;2022-10-31T18:47:50;19.70;99.90
33149;DHT22;19506;51.040;3.856;2022-10-31T18:50:16;19.70;99.90
33149;DHT22;19506;51.040;3.856;2022-10-31T18:52:41;19.70;99.90
33149;DHT22;19506;51.040;3.856;2022-10-31T18:55:07;19.70;99.90
33149;DHT22;19506;51.040;3.856;2022-10-31T18:57:33;19.60;99.90
33149;DHT22;19506;51.040;3.856;2022-10-31T18:59:59;19.60;99.90
33149;DHT22;19506;51.040;3.856;2022-10-31T19:02:24;19.60;99.90
33149;DHT22;19506;51.040;3.856;2022-10-31T19:04:50;19.60;99.90
33149;DHT22;19506;51.040;3.856;2022-10-31T19:07:16;19.60;99.90
33149;DHT22;19506;51.040;3.856;2022-10-31T19:09:41;19.50;99.90
33149;DHT22;19506;51.040;3.856;2022-10-31T19:12:07;19.50;99.90
33149;DHT22;19506;51.040;3.856;2022-10-31T19:14:33;19.50;99.90
33149;DHT22;19506;51.040;3.856;2022-10-31T19:16:58;19.50;99.90
33149;DHT22;19506;51.040;3.856;2022-10-31T19:19:24;19.50;99.90
33149;DHT22;19506;51.040;3.856;2022-10-31T19:21:50;19.50;99.90
33149;DHT22;19506;51.040;3.856;2022-10-31T19:24:15;19.40;99.90
33149;DHT22;19506;51.040;3.856;2022-10-31T19:26:41;19.40;99.90
33149;DHT22;19506;51.040;3.856;2022-10-31T19:29:08;19.40;99.90
33149;DHT22;19506;51.040;3.856;2022-10-31T19:31:34;19.40;99.90
33149;DHT22;19506;51.040;3.856;2022-10-31T19:33:59;19.30;99.90
33149;DHT22;19506;51.040;3.856;2022-10-31T19:36:25;19.30;99.90
33149;DHT22;19506;51.040;3.856;2022-10-31T19:38:51;19.30;99.90
33149;DHT22;19506;51.040;3.856;2022-10-31T19:41:20;19.30;99.90
33149;DHT22;19506;51.040;3.856;2022-10-31T19:43:46;19.30;99.90
33149;DHT22;19506;51.040;3.856;2022-10-31T19:46:13;19.20;99.90
33149;DHT22;19506;51.040;3.856;2022-10-31T19:48:39;19.30;99.90
33149;DHT22;19506;51.040;3.856;2022-10-31T19:51:10;19.20;99.90
33149;DHT22;19506;51.040;3.856;2022-10-31T19:53:37;19.20;99.90
33149;DHT22;19506;51.040;3.856;2022-10-31T19:56:03;19.20;99.90
33149;DHT22;19506;51.040;3.856;2022-10-31T19:58:31;19.20;99.90
33149;DHT22;19506;51.040;3.856;2022-10-31T20:00:56;19.20;99.90
33149;DHT22;19506;51.040;3.856;2022-10-31T20:03:22;19.20;99.90
33149;DHT22;19506;51.040;3.856;2022-10-31T20:05:48;19.20;99.90
33149;DHT22;19506;51.040;3.856;2022-10-31T20:08:18;19.20;99.90
33149;DHT22;19506;51.040;3.856;2022-10-31T20:10:59;19.20;99.90
33149;DHT22;19506;51.040;3.856;2022-10-31T20:13:27;19.20;99.90
33149;DHT22;19506;51.040;3.856;2022-10-31T20:16:01;19.20;99.90
33149;DHT22;19506;51.040;3.856;2022-10-31T20:18:27;19.20;99.90
33149;DHT22;19506;51.040;3.856;2022-10-31T20:21:04;19.20;99.90
33149;DHT22;19506;51.040;3.856;2022-10-31T20:23:31;19.20;99.90
33149;DHT22;19506;51.040;3.856;2022-10-31T20:25:57;19.20;99.90
33149;DHT22;19506;51.040;3.856;2022-10-31T20:28:22;19.20;99.90
33149;DHT22;19506;51.040;3.856;2022-10-31T20:30:48;19.20;99.90
33149;DHT22;19506;51.040;3.856;2022-10-31T20:33:14;19.20;99.90
33149;DHT22;19506;51.040;3.856;2022-10-31T20:35:40;19.10;99.90
33149;DHT22;19506;51.040;3.856;2022-10-31T20:38:07;19.20;99.90
33149;DHT22;19506;51.040;3.856;2022-10-31T20:40:34;19.20;99.90
33149;DHT22;19506;51.040;3.856;2022-10-31T20:43:01;19.10;99.90
33149;DHT22;19506;51.040;3.856;2022-10-31T20:45:27;19.20;99.90
33149;DHT22;19506;51.040;3.856;2022-10-31T20:47:54;19.10;99.90
33149;DHT22;19506;51.040;3.856;2022-10-31T20:50:20;19.10;99.90
33149;DHT22;19506;51.040;3.856;2022-10-31T20:52:46;19.10;99.90
33149;DHT22;19506;51.040;3.856;2022-10-31T20:55:12;19.10;99.90
33149;DHT22;19506;51.040;3.856;2022-10-31T20:57:38;19.10;99.90
33149;DHT22;19506;51.040;3.856;2022-10-31T21:00:04;19.10;99.90
33149;DHT22;19506;51.040;3.856;2022-10-31T21:02:30;19.10;99.90
33149;DHT22;19506;51.040;3.856;2022-10-31T21:04:56;19.10;99.90
33149;DHT22;19506;51.040;3.856;2022-10-31T21:07:21;19.10;99.90
33149;DHT22;19506;51.040;3.856;2022-10-31T21:09:47;19.10;99.90
33149;DHT22;19506;51.040;3.856;2022-10-31T21:12:13;19.10;99.90
33149;DHT22;19506;51.040;3.856;2022-10-31T21:14:38;19.10;99.90
33149;DHT22;19506;51.040;3.856;2022-10-31T21:17:04;19.10;99.90
33149;DHT22;19506;51.040;3.856;2022-10-31T21:19:31;19.10;99.90
33149;DHT22;19506;51.040;3.856;2022-10-31T21:21:57;19.10;99.90
33149;DHT22;19506;51.040;3.856;2022-10-31T21:24:24;19.10;99.90
33149;DHT22;19506;51.040;3.856;2022-10-31T21:26:52;19.10;99.90
33149;DHT22;19506;51.040;3.856;2022-10-31T21:29:18;19.10;99.90
33149;DHT22;19506;51.040;3.856;2022-10-31T21:31:45;19.20;99.90
33149;DHT22;19506;51.040;3.856;2022-10-31T21:34:11;19.10;99.90
33149;DHT22;19506;51.040;3.856;2022-10-31T21:36:37;19.10;99.90
33149;DHT22;19506;51.040;3.856;2022-10-31T21:39:04;19.10;99.90
33149;DHT22;19506;51.040;3.856;2022-10-31T21:41:30;19.10;99.90
33149;DHT22;19506;51.040;3.856;2022-10-31T21:43:56;19.20;99.90
33149;DHT22;19506;51.040;3.856;2022-10-31T21:46:27;19.20;99.90
33149;DHT22;19506;51.040;3.856;2022-10-31T21:48:54;19.10;99.90
33149;DHT22;19506;51.040;3.856;2022-10-31T21:51:23;19.20;99.90
33149;DHT22;19506;51.040;3.856;2022-10-31T21:53:49;19.20;99.90
33149;DHT22;19506;51.040;3.856;2022-10-31T21:56:34;19.10;99.90
33149;DHT22;19506;51.040;3.856;2022-10-31T21:59:00;19.20;99.90
33149;DHT22;19506;51.040;3.856;2022-10-31T22:01:27;19.10;99.90
33149;DHT22;19506;51.040;3.856;2022-10-31T22:03:54;19.10;99.90
33149;DHT22;19506;51.040;3.856;2022-10-31T22:06:20;19.10;99.90
33149;DHT22;19506;51.040;3.856;2022-10-31T22:08:46;19.10;99.90
33149;DHT22;19506;51.040;3.856;2022-10-31T22:11:14;19.10;99.90
33149;DHT22;19506;51.040;3.856;2022-10-31T22:13:42;19.10;99.90
33149;DHT22;19506;51.040;3.856;2022-10-31T22:16:10;19.10;99.90
33149;DHT22;19506;51.040;3.856;2022-10-31T22:18:37;19.10;99.90
33149;DHT22;19506;51.040;3.856;2022-10-31T22:21:04;19.10;99.90
33149;DHT22;19506;51.040;3.856;2022-10-31T22:23:30;19.10;99.90
33149;DHT22;19506;51.040;3.856;2022-10-31T22:26:04;19.20;99.90
33149;DHT22;19506;51.040;3.856;2022-10-31T22:28:31;19.20;99.90
33149;DHT22;19506;51.040;3.856;2022-10-31T22:30:57;19.20;99.90
33149;DHT22;19506;51.040;3.856;2022-10-31T22:33:23;19.20;99.90
33149;DHT22;19506;51.040;3.856;2022-10-31T22:35:49;19.20;99.90
33149;DHT22;19506;51.040;3.856;2022-10-31T22:38:15;19.20;99.90
33149;DHT22;19506;51.040;3.856;2022-10-31T22:40:40;19.20;99.90
33149;DHT22;19506;51.040;3.856;2022-10-31T22:43:06;19.20;99.90
33149;DHT22;19506;51.040;3.856;2022-10-31T22:45:31;19.20;99.90
33149;DHT22;19506;51.040;3.856;2022-10-31T22:47:57;19.20;99.90
33149;DHT22;19506;51.040;3.856;2022-10-31T22:50:22;19.20;99.90
33149;DHT22;19506;51.040;3.856;2022-10-31T22:52:48;19.20;99.90
33149;DHT22;19506;51.040;3.856;2022-10-31T22:55:14;19.20;99.90
33149;DHT22;19506;51.040;3.856;2022-10-31T22:57:41;19.20;99.90
33149;DHT22;19506;51.040;3.856;2022-10-31T23:00:07;19.20;99.90
33149;DHT22;19506;51.040;3.856;2022-10-31T23:02:34;19.20;99.90
33149;DHT22;19506;51.040;3.856;2022-10-31T23:05:00;19.20;99.90
33149;DHT22;19506;51.040;3.856;2022-10-31T23:07:26;19.20;99.90
33149;DHT22;19506;51.040;3.856;2022-10-31T23:09:51;19.20;99.90
33149;DHT22;19506;51.040;3.856;2022-10-31T23:12:18;19.20;99.90